Time;durP1;ratioP1;P1;durP2;ratioP2;P2;SDS_P1;SDS_P2;PMS_P1;PMS_P2;Temp;Humidity;BMP_temperature;BMP_pressure;BME280_temperature;BME280_humidity;BME280_pressure;Samples;Min_cycle;Max_cycle;Signal;HPM_P1;HPM_P2
2021/03/30 00:02:54;;;;;;;;;;;;;;;;;;10344055;28;1174;-21
2021/03/30 00:08:14;;;;;;;;;;;;;;;;;;10332253;28;1899;-20
2021/03/30 00:13:34;;;;;;;;;;;;;;;;;;10347079;28;1118;-21
2021/03/30 00:19:09;;;;;;;;;;;;;;;;;;10372868;28;942;-20
2021/03/30 00:24:29;;;;;;;;;;;;;;;;;;10372510;28;1134;-20
2021/03/30 00:29:50;;;;;;;;;;;;;;;;;;10371819;28;1973;-20
2021/03/30 00:35:10;;;;;;;;;;;;;;;;;;10372168;28;708;-21
2021/03/30 00:40:31;;;;;;;;;;;;;;;;;;10369859;28;1621;-20
2021/03/30 00:46:14;;;;;;;;;;;;;;;;;;10371830;28;1902;-20
2021/03/30 00:51:34;;;;;;;;;;;;;;;;;;10333025;28;1216;-20
2021/03/30 00:57:18;;;;;;;;;;;;;;;;;;10317477;28;1071;-20
2021/03/30 01:02:40;;;;;;;;;;;;;;;;;;10342651;28;943;-20
2021/03/30 01:08:18;;;;;;;;;;;;;;;;;;10330110;28;1894;-21
2021/03/30 01:14:08;;;;;;;;;;;;;;;;;;10340310;28;1626;-22
2021/03/30 01:19:46;;;;;;;;;;;;;;;;;;10330117;28;697;-20
2021/03/30 01:25:07;;;;;;;;;;;;;;;;;;10329265;28;1512;-20
2021/03/30 01:30:43;;;;;;;;;;;;;;;;;;10299786;28;2133;-20
2021/03/30 01:36:21;;;;;;;;;;;;;;;;;;10329718;28;677;-21
2021/03/30 01:41:44;;;;;;;;;;;;;;;;;;10329727;28;1360;-20
2021/03/30 01:47:04;;;;;;;;;;;;;;;;;;10329390;28;1907;-21
2021/03/30 01:52:26;;;;;;;;;;;;;;;;;;10340987;28;1713;-20
2021/03/30 01:57:47;;;;;;;;;;;;;;;;;;10329018;28;1199;-20
2021/03/30 02:03:08;;;;;;;;;;;;;;;;;;10329211;28;728;-21
2021/03/30 02:08:31;;;;;;;;;;;;;;;;;;10327071;28;1987;-20
2021/03/30 02:14:06;;;;;;;;;;;;;;;;;;10329467;28;685;-21
2021/03/30 02:19:42;;;;;;;;;;;;;;;;;;10328848;28;720;-20
2021/03/30 02:25:05;;;;;;;;;;;;;;;;;;10329011;28;681;-20
2021/03/30 02:30:26;;;;;;;;;;;;;;;;;;10331946;28;1907;-20
2021/03/30 02:36:01;;;;;;;;;;;;;;;;;;10367815;28;881;-21
2021/03/30 02:41:37;;;;;;;;;;;;;;;;;;10374332;28;1339;-21
2021/03/30 02:46:59;;;;;;;;;;;;;;;;;;10376481;28;1898;-19
2021/03/30 02:52:22;;;;;;;;;;;;;;;;;;10348105;28;1683;-19
2021/03/30 02:57:57;;;;;;;;;;;;;;;;;;10345498;28;1051;-19
2021/03/30 03:03:18;;;;;;;;;;;;;;;;;;10335332;28;736;-20
2021/03/30 03:08:39;;;;;;;;;;;;;;;;;;10346723;28;1899;-19
2021/03/30 03:14:00;;;;;;;;;;;;;;;;;;10335280;28;724;-20
2021/03/30 03:19:21;;;;;;;;;;;;;;;;;;10333834;28;1495;-20
2021/03/30 03:24:45;;;;;;;;;;;;;;;;;;10346557;28;1029;-20
2021/03/30 03:30:06;;;;;;;;;;;;;;;;;;10345770;28;1891;-21
2021/03/30 03:35:26;;;;;;;;;;;;;;;;;;10333920;28;700;-18
2021/03/30 03:40:47;;;;;;;;;;;;;;;;;;10333722;28;1285;-21
2021/03/30 03:46:07;;;;;;;;;;;;;;;;;;10332100;28;877;-20
2021/03/30 03:51:32;;;;;;;;;;;;;;;;;;10349099;28;1142;-20
2021/03/30 03:56:54;;;;;;;;;;;;;;;;;;10379168;28;1162;-21
2021/03/30 04:02:16;;;;;;;;;;;;;;;;;;10330817;28;1020;-20
2021/03/30 04:07:42;;;;;;;;;;;;;;;;;;10371539;28;1910;-20
2021/03/30 04:13:18;;;;;;;;;;;;;;;;;;10373116;28;744;-20
2021/03/30 04:18:39;;;;;;;;;;;;;;;;;;10372967;28;962;-20
2021/03/30 04:24:14;;;;;;;;;;;;;;;;;;10372402;28;747;-20
2021/03/30 04:29:35;;;;;;;;;;;;;;;;;;10359444;28;1890;-20
2021/03/30 04:34:55;;;;;;;;;;;;;;;;;;10332031;28;677;-20
2021/03/30 04:40:30;;;;;;;;;;;;;;;;;;10330862;28;669;-20
2021/03/30 04:45:51;;;;;;;;;;;;;;;;;;10315887;28;1160;-20
2021/03/30 04:51:11;;;;;;;;;;;;;;;;;;10345394;28;1980;-21
2021/03/30 04:56:46;;;;;;;;;;;;;;;;;;10371602;28;712;-18
2021/03/30 05:02:07;;;;;;;;;;;;;;;;;;10370577;28;676;-20
2021/03/30 05:07:27;;;;;;;;;;;;;;;;;;10369175;28;1985;-20
2021/03/30 05:13:02;;;;;;;;;;;;;;;;;;10368551;28;1240;-18
2021/03/30 05:18:23;;;;;;;;;;;;;;;;;;10368886;28;1102;-20
2021/03/30 05:23:58;;;;;;;;;;;;;;;;;;10370755;28;739;-22
2021/03/30 05:29:18;;;;;;;;;;;;;;;;;;10370299;28;1894;-20
2021/03/30 05:34:54;;;;;;;;;;;;;;;;;;10354294;28;1024;-21
2021/03/30 05:40:29;;;;;;;;;;;;;;;;;;10370125;28;712;-20
2021/03/30 05:45:49;;;;;;;;;;;;;;;;;;10370418;28;763;-20
2021/03/30 05:51:11;;;;;;;;;;;;;;;;;;10369290;28;1906;-19
2021/03/30 05:56:46;;;;;;;;;;;;;;;;;;10339589;28;1120;-20
2021/03/30 06:02:28;;;;;;;;;;;;;;;;;;10327548;28;872;-20
2021/03/30 06:07:51;;;;;;;;;;;;;;;;;;10327301;28;1891;-20
2021/03/30 06:13:12;;;;;;;;;;;;;;;;;;10318000;28;935;-20
2021/03/30 06:18:33;;;;;;;;;;;;;;;;;;10321381;28;1083;-19
2021/03/30 06:23:55;;;;;;;;;;;;;;;;;;10320845;28;1750;-20
2021/03/30 06:29:34;;;;;;;;;;;;;;;;;;10325097;28;2298;-21
2021/03/30 06:35:10;;;;;;;;;;;;;;;;;;10360802;28;1306;-20
2021/03/30 06:40:34;;;;;;;;;;;;;;;;;;10373788;28;1400;-20
2021/03/30 06:45:55;;;;;;;;;;;;;;;;;;10361251;28;953;-21
2021/03/30 06:51:17;;;;;;;;;;;;;;;;;;10361257;28;1981;-22
2021/03/30 06:56:44;;;;;;;;;;;;;;;;;;10335823;28;748;-20
2021/03/30 07:02:05;;;;;;;;;;;;;;;;;;10361471;28;1104;-21
2021/03/30 07:07:26;;;;;;;;;;;;;;;;;;10335210;28;1907;-20
2021/03/30 07:12:50;;;;;;;;;;;;;;;;;;10347266;28;889;-18
2021/03/30 07:18:10;;;;;;;;;;;;;;;;;;10334229;28;1308;-21
2021/03/30 07:23:32;;;;;;;;;;;;;;;;;;10342570;28;1484;-20
2021/03/30 07:29:05;;;;;;;;;;;;;;;;;;10374404;28;1973;-20
2021/03/30 07:34:58;;;;;;;;;;;;;;;;;;10367978;28;744;-21
2021/03/30 07:40:20;;;;;;;;;;;;;;;;;;10351960;28;941;-20
2021/03/30 07:45:42;;;;;;;;;;;;;;;;;;10351648;28;960;-20
2021/03/30 07:51:06;;;;;;;;;;;;;;;;;;10021212;28;10000333;-20
2021/03/30 07:56:27;;;;;;;;;;;;;;;;;;10392854;28;1060;-19
2021/03/30 08:01:48;;;;;;;;;;;;;;;;;;10379082;28;962;-20
2021/03/30 08:07:08;;;;;;;;;;;;;;;;;;10350642;28;1975;-21
2021/03/30 08:12:29;;;;;;;;;;;;;;;;;;10366306;28;755;-21
2021/03/30 08:17:49;;;;;;;;;;;;;;;;;;10365950;28;1607;-19
2021/03/30 08:23:11;;;;;;;;;;;;;;;;;;10363535;28;1431;-20
2021/03/30 08:28:50;;;;;;;;;;;;;;;;;;10365663;28;1993;-20
2021/03/30 08:34:26;;;;;;;;;;;;;;;;;;10324575;28;1515;-20
2021/03/30 08:40:01;;;;;;;;;;;;;;;;;;10311349;28;892;-21
2021/03/30 08:45:21;;;;;;;;;;;;;;;;;;10325004;28;1383;-20
2021/03/30 08:50:43;;;;;;;;;;;;;;;;;;10327139;28;2497;-19
2021/03/30 08:56:09;;;;;;;;;;;;;;;;;;10350041;28;935;-20
2021/03/30 09:01:30;;;;;;;;;;;;;;;;;;10355490;28;1220;-19
2021/03/30 09:07:05;;;;;;;;;;;;;;;;;;10370763;28;1898;-21
2021/03/30 09:12:25;;;;;;;;;;;;;;;;;;10355540;28;878;-19
2021/03/30 09:17:53;;;;;;;;;;;;;;;;;;10368731;28;1563;-20
2021/03/30 09:23:18;;;;;;;;;;;;;;;;;;10354971;28;1434;-19
2021/03/30 09:28:41;;;;;;;;;;;;;;;;;;10342247;28;35593;-19
2021/03/30 09:34:02;;;;;;;;;;;;;;;;;;10370342;28;684;-20
2021/03/30 09:39:24;;;;;;;;;;;;;;;;;;10340681;28;1443;-20
2021/03/30 09:45:00;;;;;;;;;;;;;;;;;;10354321;28;1237;-20
2021/03/30 09:50:22;;;;;;;;;;;;;;;;;;10353418;28;1914;-19
2021/03/30 09:55:43;;;;;;;;;;;;;;;;;;10369803;28;1000;-20
2021/03/30 10:01:04;;;;;;;;;;;;;;;;;;10369669;28;700;-20
2021/03/30 10:06:28;;;;;;;;;;;;;;;;;;10367966;28;1000;-20
2021/03/30 10:11:50;;;;;;;;;;;;;;;;;;10369151;28;1906;-20
2021/03/30 10:17:14;;;;;;;;;;;;;;;;;;10354285;28;1127;-21
2021/03/30 10:22:35;;;;;;;;;;;;;;;;;;10368332;28;661;-19
2021/03/30 10:28:11;;;;;;;;;;;;;;;;;;10368983;28;1903;-21
2021/03/30 10:33:40;;;;;;;;;;;;;;;;;;10336924;28;1095;-20
2021/03/30 10:39:04;;;;;;;;;;;;;;;;;;10325184;28;945;-21
2021/03/30 10:44:43;;;;;;;;;;;;;;;;;;10014319;28;10000185;-20
2021/03/30 10:50:06;;;;;;;;;;;;;;;;;;10346437;28;1982;-20
2021/03/30 10:55:27;;;;;;;;;;;;;;;;;;10304746;28;1225;-21
2021/03/30 11:00:48;;;;;;;;;;;;;;;;;;10343638;28;1019;-18
2021/03/30 11:06:19;;;;;;;;;;;;;;;;;;10346020;28;892;-19
2021/03/30 11:11:40;;;;;;;;;;;;;;;;;;10334355;28;1967;-19
2021/03/30 11:17:15;;;;;;;;;;;;;;;;;;10334253;28;1413;-20
2021/03/30 11:22:50;;;;;;;;;;;;;;;;;;10334455;28;1489;-20
2021/03/30 11:28:12;;;;;;;;;;;;;;;;;;10346296;28;1906;-18
2021/03/30 11:33:53;;;;;;;;;;;;;;;;;;10335619;28;1093;-21
2021/03/30 11:39:13;;;;;;;;;;;;;;;;;;10373507;28;1089;-20
2021/03/30 11:44:48;;;;;;;;;;;;;;;;;;10372999;28;1375;-20
2021/03/30 11:50:09;;;;;;;;;;;;;;;;;;10368074;28;1898;-19
2021/03/30 11:55:30;;;;;;;;;;;;;;;;;;10361403;28;1126;-19
2021/03/30 12:00:50;;;;;;;;;;;;;;;;;;10351595;28;1125;-20
2021/03/30 12:06:10;;;;;;;;;;;;;;;;;;10372229;28;1070;-20
2021/03/30 12:11:31;;;;;;;;;;;;;;;;;;10366118;28;1894;-20
2021/03/30 12:16:51;;;;;;;;;;;;;;;;;;10370377;28;1149;-18
2021/03/30 12:22:12;;;;;;;;;;;;;;;;;;10369856;28;1070;-20
2021/03/30 12:27:46;;;;;;;;;;;;;;;;;;10370974;28;1910;-20
2021/03/30 12:33:07;;;;;;;;;;;;;;;;;;10348509;28;1545;-19
2021/03/30 12:38:27;;;;;;;;;;;;;;;;;;10331828;28;661;-20
2021/03/30 12:43:48;;;;;;;;;;;;;;;;;;10328646;28;1945;-19
2021/03/30 12:49:23;;;;;;;;;;;;;;;;;;10330979;28;1894;-20
2021/03/30 12:55:06;;;;;;;;;;;;;;;;;;10330995;28;766;-20
2021/03/30 13:00:41;;;;;;;;;;;;;;;;;;10379537;28;1945;-21
2021/03/30 13:06:08;;;;;;;;;;;;;;;;;;10384204;28;767;-19
2021/03/30 13:11:42;;;;;;;;;;;;;;;;;;10371169;28;1906;-20
2021/03/30 13:17:04;;;;;;;;;;;;;;;;;;10359298;28;1556;-18
2021/03/30 13:22:25;;;;;;;;;;;;;;;;;;10343269;28;732;-20
2021/03/30 13:28:01;;;;;;;;;;;;;;;;;;10320321;28;1982;-20
2021/03/30 13:33:22;;;;;;;;;;;;;;;;;;10368103;28;693;-20
2021/03/30 13:38:42;;;;;;;;;;;;;;;;;;10383068;28;707;-18
2021/03/30 13:44:04;;;;;;;;;;;;;;;;;;10345215;28;1447;-19
2021/03/30 13:49:25;;;;;;;;;;;;;;;;;;10369501;28;1894;-18
2021/03/30 13:54:46;;;;;;;;;;;;;;;;;;10367268;28;1310;-19
2021/03/30 14:00:21;;;;;;;;;;;;;;;;;;10361729;28;1113;-19
2021/03/30 14:05:41;;;;;;;;;;;;;;;;;;10369540;28;1694;-19
2021/03/30 14:11:02;;;;;;;;;;;;;;;;;;10367725;28;1902;-20
2021/03/30 14:16:26;;;;;;;;;;;;;;;;;;10370372;28;723;-20
2021/03/30 14:21:51;;;;;;;;;;;;;;;;;;10369137;28;1482;-20
2021/03/30 14:27:12;;;;;;;;;;;;;;;;;;10367211;28;1286;-18
2021/03/30 14:32:47;;;;;;;;;;;;;;;;;;10370774;28;1056;-19
2021/03/30 14:38:08;;;;;;;;;;;;;;;;;;10376576;28;1698;-21
2021/03/30 14:43:40;;;;;;;;;;;;;;;;;;10374811;28;1245;-20
2021/03/30 15:05:44;;;;;;;;;;;;;;;;;;10335588;28;752;-20
2021/03/30 15:11:05;;;;;;;;;;;;;;;;;;10347460;28;2012;-20
2021/03/30 15:16:25;;;;;;;;;;;;;;;;;;10334377;28;735;-20
2021/03/30 15:41:42;;;;;;;;;;;;;;;;;;10693266;27;1995;-20
2021/03/30 15:47:19;;;;;;;;;;;;;;;;;;10694028;27;1999;-20
2021/03/30 15:52:41;;;;;;;;;;;;;;;;;;10647895;27;1208;-20
2021/03/30 15:58:01;;;;;;;;;;;;;;;;;;10644739;27;1014;-21
2021/03/30 16:03:26;;;;;;;;;;;;;;;;;;10640919;27;1086;-18
2021/03/30 16:08:46;;;;;;;;;;;;;;;;;;10638843;27;1894;-21
2021/03/30 16:14:06;;;;;;;;;;;;;;;;;;10641830;27;1296;-19
2021/03/30 16:19:27;;;;;;;;;;;;;;;;;;10641099;27;1091;-20
2021/03/30 16:24:47;;;;;;;;;;;;;;;;;;10646847;27;1181;-20
2021/03/30 16:30:08;;;;;;;;;;;;;;;;;;10641500;27;1987;-21
2021/03/30 16:35:28;;;;;;;;;;;;;;;;;;10603060;27;1563;-20
2021/03/30 16:40:49;;;;;;;;;;;;;;;;;;10599010;27;1252;-19
2021/03/30 16:46:09;;;;;;;;;;;;;;;;;;10614597;27;1049;-20
2021/03/30 16:51:34;;;;;;;;;;;;;;;;;;10241372;27;10000045;-19
2021/03/30 16:56:54;;;;;;;;;;;;;;;;;;10597418;27;1254;-21
2021/03/30 17:02:15;;;;;;;;;;;;;;;;;;10613308;27;1069;-20
2021/03/30 17:07:35;;;;;;;;;;;;;;;;;;10613739;27;1950;-22
2021/03/30 17:12:55;;;;;;;;;;;;;;;;;;10612170;27;1202;-20
2021/03/30 17:18:16;;;;;;;;;;;;;;;;;;10580839;27;1285;-21
2021/03/30 17:23:37;;;;;;;;;;;;;;;;;;10572517;27;1214;-19
2021/03/30 17:29:01;;;;;;;;;;;;;;;;;;10647841;27;1902;-18
2021/03/30 17:34:21;;;;;;;;;;;;;;;;;;10655518;27;1067;-20
2021/03/30 17:39:42;;;;;;;;;;;;;;;;;;10634111;27;1174;-21
2021/03/30 17:45:03;;;;;;;;;;;;;;;;;;10608529;27;1221;-20
2021/03/30 17:50:23;;;;;;;;;;;;;;;;;;10585533;27;2019;-21
2021/03/30 17:55:44;;;;;;;;;;;;;;;;;;10568779;27;1283;-21
2021/03/30 18:01:04;;;;;;;;;;;;;;;;;;10607523;27;1961;-19
2021/03/30 18:06:26;;;;;;;;;;;;;;;;;;10609993;27;1295;-21
2021/03/30 18:11:46;;;;;;;;;;;;;;;;;;10610328;27;1059;-19
2021/03/30 18:17:08;;;;;;;;;;;;;;;;;;10610048;27;1220;-20
2021/03/30 18:22:29;;;;;;;;;;;;;;;;;;10608403;27;1016;-20
2021/03/30 18:27:49;;;;;;;;;;;;;;;;;;10633610;27;1893;-19
2021/03/30 18:33:10;;;;;;;;;;;;;;;;;;10651985;27;1033;-19
2021/03/30 18:38:30;;;;;;;;;;;;;;;;;;10628982;27;1185;-20
2021/03/30 18:43:51;;;;;;;;;;;;;;;;;;10603506;27;3259;-20
2021/03/30 18:49:12;;;;;;;;;;;;;;;;;;10599196;27;2006;-21
2021/03/30 18:54:32;;;;;;;;;;;;;;;;;;10600152;27;2684;-20
2021/03/30 19:05:31;;;;;;;;;;;;;;;;;;10570740;27;1112;-20
2021/03/30 19:10:52;;;;;;;;;;;;;;;;;;10608032;27;1898;-18
2021/03/30 19:16:12;;;;;;;;;;;;;;;;;;10606044;27;1339;-20
2021/03/30 19:21:33;;;;;;;;;;;;;;;;;;10607372;27;1058;-20
2021/03/30 19:26:53;;;;;;;;;;;;;;;;;;10607209;27;1981;-19
2021/03/30 19:32:18;;;;;;;;;;;;;;;;;;10607277;28;1030;-21
2021/03/30 19:37:39;;;;;;;;;;;;;;;;;;10607383;28;1080;-21
2021/03/30 19:43:00;;;;;;;;;;;;;;;;;;10608293;28;1206;-20
2021/03/30 19:48:22;;;;;;;;;;;;;;;;;;10612911;28;1976;-20
2021/03/30 19:53:43;;;;;;;;;;;;;;;;;;10601524;28;1365;-19
2021/03/30 19:59:06;;;;;;;;;;;;;;;;;;10570456;28;1107;-20
2021/03/30 20:04:27;;;;;;;;;;;;;;;;;;10570188;28;1043;-20
2021/03/30 20:09:47;;;;;;;;;;;;;;;;;;10608918;28;1909;-20
2021/03/30 20:15:08;;;;;;;;;;;;;;;;;;10615907;27;1034;-21
2021/03/30 20:20:29;;;;;;;;;;;;;;;;;;10620412;27;1061;-20
2021/03/30 20:25:49;;;;;;;;;;;;;;;;;;10604977;27;1306;-20
2021/03/30 20:31:09;;;;;;;;;;;;;;;;;;10619481;27;1981;-21
2021/03/30 20:36:30;;;;;;;;;;;;;;;;;;10619828;27;1040;-21
2021/03/30 20:41:51;;;;;;;;;;;;;;;;;;10619699;27;1163;-20
2021/03/30 20:47:13;;;;;;;;;;;;;;;;;;10619443;27;1971;-20
2021/03/30 20:52:34;;;;;;;;;;;;;;;;;;10619105;27;1083;-21
2021/03/30 20:57:54;;;;;;;;;;;;;;;;;;10619270;27;1040;-20
2021/03/30 21:03:14;;;;;;;;;;;;;;;;;;10618556;27;1113;-20
2021/03/30 21:08:35;;;;;;;;;;;;;;;;;;10619027;27;1991;-20
2021/03/30 21:13:54;;;;;;;;;;;;;;;;;;10618506;27;1093;-21
2021/03/30 21:19:15;;;;;;;;;;;;;;;;;;10617985;27;1142;-20
2021/03/30 21:24:36;;;;;;;;;;;;;;;;;;10618043;27;1119;-20
2021/03/30 21:29:56;;;;;;;;;;;;;;;;;;10617378;27;1914;-20
2021/03/30 21:35:17;;;;;;;;;;;;;;;;;;10617782;27;1128;-20
2021/03/30 21:40:37;;;;;;;;;;;;;;;;;;10616891;27;1859;-18
2021/03/30 21:45:57;;;;;;;;;;;;;;;;;;10617262;27;1042;-18
2021/03/30 21:51:19;;;;;;;;;;;;;;;;;;10616985;27;1988;-20
2021/03/30 21:56:40;;;;;;;;;;;;;;;;;;10616639;27;1213;-20
2021/03/30 22:02:01;;;;;;;;;;;;;;;;;;10615969;27;1173;-20
2021/03/30 22:07:21;;;;;;;;;;;;;;;;;;10613508;27;1906;-20
2021/03/30 22:12:44;;;;;;;;;;;;;;;;;;10592337;27;1199;-19
2021/03/30 22:18:05;;;;;;;;;;;;;;;;;;10615826;27;1025;-20
2021/03/30 22:23:28;;;;;;;;;;;;;;;;;;10613817;27;1395;-19
2021/03/30 22:28:49;;;;;;;;;;;;;;;;;;10639506;27;1905;-20
2021/03/30 22:34:09;;;;;;;;;;;;;;;;;;10657891;27;1048;-18
2021/03/30 22:39:30;;;;;;;;;;;;;;;;;;10656639;27;1292;-20
2021/03/30 22:44:50;;;;;;;;;;;;;;;;;;10657610;27;971;-20
2021/03/30 22:50:12;;;;;;;;;;;;;;;;;;10656827;27;1901;-17
2021/03/30 22:55:32;;;;;;;;;;;;;;;;;;10657120;27;1068;-19
2021/03/30 23:00:53;;;;;;;;;;;;;;;;;;10656446;27;1016;-20
2021/03/30 23:06:13;;;;;;;;;;;;;;;;;;10656495;27;1137;-21
2021/03/30 23:11:34;;;;;;;;;;;;;;;;;;10656055;27;1905;-21
2021/03/30 23:16:54;;;;;;;;;;;;;;;;;;10656319;27;1078;-20
2021/03/30 23:22:14;;;;;;;;;;;;;;;;;;10656299;27;1257;-18
2021/03/30 23:27:35;;;;;;;;;;;;;;;;;;10651014;27;1909;-21
2021/03/30 23:32:56;;;;;;;;;;;;;;;;;;10655943;27;1221;-20
2021/03/30 23:38:16;;;;;;;;;;;;;;;;;;10655704;27;1136;-20
2021/03/30 23:43:36;;;;;;;;;;;;;;;;;;10655812;27;984;-19
2021/03/30 23:48:57;;;;;;;;;;;;;;;;;;10656830;27;1894;-20
2021/03/30 23:54:17;;;;;;;;;;;;;;;;;;10664050;27;1353;-20
2021/03/30 23:59:37;;;;;;;;;;;;;;;;;;10632874;27;1136;-20
